Logan, Iowa
Current Conditions -  °F | °C
As of 1:54 PM on Thursday 23 Oct 2014 (Local Time) from KTQE Reporting Station
Clear Clear  
Wind Chill: 69°   Ceiling: Unl
Heat Index: 69°   Visibility: 10mi
Dew Point: 50°   Wind: 0mph
Humidity: 51%   Direction: NA
Pressure: 30.03"   Gusts: NA
Location:  41.64°N, 95.79°W
Report Text: KTQE 231854Z AUTO 00000KT 10SM CLR 21/10 A3003 RMK AO2 SLP161 T02060100
Loading
Personal Weather Stations






























Interactive Weather Map
Tropical Storm Tracking
New forecast layout! Learn more

10-Day Weather Forecast

Advertisements
Track Severe Weather on mobile